Time;durP1;ratioP1;P1;durP2;ratioP2;P2;SDS_P1;SDS_P2;PMS_P1;PMS_P2;Temp;Humidity;BMP_temperature;BMP_pressure;BME280_temperature;BME280_humidity;BME280_pressure;Samples;Min_cycle;Max_cycle;Signal;HPM_P1;HPM_P2
2024/02/20 00:00:39;;;;;;;1.73;1.63;;;;;;;;;;5885347;28;20041;-82
2024/02/20 00:03:30;;;;;;;2.05;1.85;;;;;;;;;;5887033;28;20056;-85
2024/02/20 00:06:21;;;;;;;2.45;2.25;;;;;;;;;;5888569;28;20064;-83
2024/02/20 00:09:12;;;;;;;3.20;2.88;;;;;;;;;;5888477;28;20418;-83
2024/02/20 00:12:05;;;;;;;1.85;1.70;;;;;;;;;;5888735;28;20053;-83
2024/02/20 00:14:58;;;;;;;2.55;2.05;;;;;;;;;;5888790;28;20052;-83
2024/02/20 00:17:49;;;;;;;3.47;1.90;;;;;;;;;;5889677;28;20041;-83
2024/02/20 00:20:42;;;;;;;2.42;1.75;;;;;;;;;;5888419;28;20095;-83
2024/02/20 00:23:35;;;;;;;3.85;2.65;;;;;;;;;;5889492;28;20041;-83
2024/02/20 00:26:26;;;;;;;1.92;1.73;;;;;;;;;;5888120;28;20041;-83
2024/02/20 00:29:17;;;;;;;3.22;1.75;;;;;;;;;;5888242;28;20080;-83
2024/02/20 00:32:08;;;;;;;2.25;1.83;;;;;;;;;;5888015;28;20048;-82
2024/02/20 00:34:59;;;;;;;3.15;2.08;;;;;;;;;;5888452;28;20040;-83
2024/02/20 00:37:50;;;;;;;5.80;2.42;;;;;;;;;;5888319;28;20383;-84
2024/02/20 00:40:41;;;;;;;2.28;1.95;;;;;;;;;;5887824;28;20044;-83
2024/02/20 00:43:33;;;;;;;20.67;2.67;;;;;;;;;;5904394;28;20497;-83
2024/02/20 00:46:24;;;;;;;2.42;2.00;;;;;;;;;;5887705;28;20143;-83
2024/02/20 00:49:16;;;;;;;1.80;1.67;;;;;;;;;;5887733;28;20057;-83
2024/02/20 00:52:07;;;;;;;2.10;1.92;;;;;;;;;;5887866;28;20049;-83
2024/02/20 00:54:58;;;;;;;3.05;2.83;;;;;;;;;;5888192;28;20056;-83
2024/02/20 00:57:49;;;;;;;1.88;1.77;;;;;;;;;;5887814;28;20148;-83
2024/02/20 01:00:40;;;;;;;2.08;1.92;;;;;;;;;;5888839;28;20506;-83
2024/02/20 01:03:31;;;;;;;1.83;1.73;;;;;;;;;;5915212;28;20048;-83
2024/02/20 01:06:22;;;;;;;3.05;2.00;;;;;;;;;;5911785;28;20402;-83
2024/02/20 01:09:13;;;;;;;2.15;1.95;;;;;;;;;;5910292;28;20059;-83
2024/02/20 01:12:04;;;;;;;1.25;1.15;;;;;;;;;;5910367;28;20055;-83
2024/02/20 01:14:57;;;;;;;2.38;2.17;;;;;;;;;;5926927;28;20044;-83
2024/02/20 01:17:48;;;;;;;2.80;1.73;;;;;;;;;;5911801;28;20110;-83
2024/02/20 01:20:39;;;;;;;1.95;1.80;;;;;;;;;;5894046;28;20041;-82
2024/02/20 01:23:31;;;;;;;2.45;1.95;;;;;;;;;;5927202;28;20049;-83
2024/02/20 01:26:22;;;;;;;1.15;1.08;;;;;;;;;;5910165;28;20063;-83
2024/02/20 01:29:13;;;;;;;2.03;1.55;;;;;;;;;;5910199;28;20067;-83
2024/02/20 01:32:03;;;;;;;8.82;3.28;;;;;;;;;;5926625;28;20055;-83
2024/02/20 01:34:54;;;;;;;8.57;2.22;;;;;;;;;;5927161;28;20052;-83
2024/02/20 01:37:45;;;;;;;4.18;1.52;;;;;;;;;;5926505;28;20047;-83
2024/02/20 01:40:37;;;;;;;3.05;1.83;;;;;;;;;;5910209;28;20055;-83
2024/02/20 01:43:29;;;;;;;8.60;2.88;;;;;;;;;;5926764;28;20048;-83
2024/02/20 01:46:21;;;;;;;2.13;1.75;;;;;;;;;;5911159;28;20048;-83
2024/02/20 01:49:12;;;;;;;2.90;2.15;;;;;;;;;;5909670;28;20048;-83
2024/02/20 01:52:08;;;;;;;6.35;3.10;;;;;;;;;;5926345;28;20048;-83
2024/02/20 01:55:01;;;;;;;4.45;3.67;;;;;;;;;;5910083;28;20171;-83
2024/02/20 01:57:52;;;;;;;4.22;3.83;;;;;;;;;;5925990;28;20045;-83
2024/02/20 02:00:42;;;;;;;5.93;4.15;;;;;;;;;;5909474;28;20051;-83
2024/02/20 02:03:36;;;;;;;4.53;3.45;;;;;;;;;;5926108;28;20514;-83
2024/02/20 02:06:31;;;;;;;4.25;3.40;;;;;;;;;;5909212;28;20040;-84
2024/02/20 02:09:22;;;;;;;3.63;3.25;;;;;;;;;;5909273;28;20090;-84
2024/02/20 02:12:13;;;;;;;6.07;4.13;;;;;;;;;;5925758;28;20061;-84
2024/02/20 02:15:04;;;;;;;8.00;4.40;;;;;;;;;;5925946;28;20501;-83
2024/02/20 02:17:55;;;;;;;7.80;4.03;;;;;;;;;;5910946;28;20044;-84
2024/02/20 02:20:45;;;;;;;3.65;3.22;;;;;;;;;;5909054;28;20163;-84
2024/02/20 02:23:36;;;;;;;6.20;3.05;;;;;;;;;;5925664;28;20044;-84
2024/02/20 02:26:27;;;;;;;3.40;2.67;;;;;;;;;;5908051;28;20491;-84
2024/02/20 02:29:18;;;;;;;3.05;2.85;;;;;;;;;;5925732;28;20053;-84
2024/02/20 02:32:09;;;;;;;6.65;2.88;;;;;;;;;;5909872;28;20048;-84
2024/02/20 02:35:01;;;;;;;3.97;3.33;;;;;;;;;;5910523;28;20056;-84
2024/02/20 02:37:52;;;;;;;2.97;2.78;;;;;;;;;;5925287;28;20037;-84
2024/02/20 02:40:42;;;;;;;8.18;3.08;;;;;;;;;;5908536;28;20525;-84
2024/02/20 02:43:33;;;;;;;4.80;3.22;;;;;;;;;;5908476;28;20051;-84
2024/02/20 02:46:24;;;;;;;3.55;2.88;;;;;;;;;;5908494;28;20067;-84
2024/02/20 02:49:15;;;;;;;7.18;4.63;;;;;;;;;;5925123;28;20048;-84
2024/02/20 02:52:06;;;;;;;6.05;3.35;;;;;;;;;;5925131;28;20048;-83
2024/02/20 02:54:57;;;;;;;4.35;3.67;;;;;;;;;;5908495;28;20055;-84
2024/02/20 02:57:47;;;;;;;8.63;3.30;;;;;;;;;;5908035;28;20036;-83
2024/02/20 03:00:38;;;;;;;7.13;3.97;;;;;;;;;;5908172;28;20044;-84
2024/02/20 03:03:29;;;;;;;3.67;3.28;;;;;;;;;;5909485;28;20061;-84
2024/02/20 03:06:20;;;;;;;3.58;3.28;;;;;;;;;;5909510;28;20053;-84
2024/02/20 03:09:12;;;;;;;6.40;3.15;;;;;;;;;;5908155;28;20072;-84
2024/02/20 03:12:04;;;;;;;1.73;1.63;;;;;;;;;;5924781;28;20052;-84
2024/02/20 03:14:56;;;;;;;2.15;1.92;;;;;;;;;;5908346;28;20051;-84
2024/02/20 03:17:49;;;;;;;3.42;1.58;;;;;;;;;;5909401;28;20047;-83
2024/02/20 03:20:40;;;;;;;2.22;1.95;;;;;;;;;;5909375;28;20037;-84
2024/02/20 03:23:31;;;;;;;1.48;1.38;;;;;;;;;;5907868;28;20048;-84
2024/02/20 03:26:22;;;;;;;2.95;2.30;;;;;;;;;;5924197;28;20048;-84
2024/02/20 03:29:13;;;;;;;1.73;1.63;;;;;;;;;;5924210;28;20249;-84
2024/02/20 03:32:04;;;;;;;2.28;2.08;;;;;;;;;;5924566;28;20489;-84
2024/02/20 03:34:55;;;;;;;2.60;1.88;;;;;;;;;;5924778;28;20052;-85
2024/02/20 03:37:48;;;;;;;1.63;1.50;;;;;;;;;;5924174;28;20048;-84
2024/02/20 03:40:40;;;;;;;2.28;1.80;;;;;;;;;;5907800;28;20071;-84
2024/02/20 03:43:32;;;;;;;2.13;1.40;;;;;;;;;;5924268;28;20079;-84
2024/02/20 03:46:23;;;;;;;4.32;2.65;;;;;;;;;;5907452;28;20098;-86
2024/02/20 03:49:13;;;;;;;2.22;1.83;;;;;;;;;;5908913;28;20052;-85
2024/02/20 03:52:05;;;;;;;1.95;1.63;;;;;;;;;;5907458;28;20052;-83
2024/02/20 03:54:56;;;;;;;2.25;1.35;;;;;;;;;;5924475;28;20090;-85
2024/02/20 03:57:47;;;;;;;2.08;1.20;;;;;;;;;;5908753;28;20056;-83
2024/02/20 04:00:37;;;;;;;2.75;2.33;;;;;;;;;;5923992;28;20394;-84
2024/02/20 04:03:28;;;;;;;2.58;2.05;;;;;;;;;;5907307;28;20049;-84
2024/02/20 04:06:19;;;;;;;2.42;2.22;;;;;;;;;;5923899;28;20405;-84
2024/02/20 04:09:10;;;;;;;2.35;2.15;;;;;;;;;;5907268;28;20051;-83
2024/02/20 04:12:01;;;;;;;2.35;1.23;;;;;;;;;;5923957;28;20060;-83
2024/02/20 04:14:52;;;;;;;1.13;1.08;;;;;;;;;;5907485;28;20422;-84
2024/02/20 04:17:43;;;;;;;2.05;1.73;;;;;;;;;;5907185;28;20451;-84
2024/02/20 04:20:34;;;;;;;1.92;1.50;;;;;;;;;;5907203;28;20391;-84
2024/02/20 04:23:24;;;;;;;2.60;2.40;;;;;;;;;;5907249;28;20494;-84
2024/02/20 04:26:15;;;;;;;2.58;1.35;;;;;;;;;;5908517;28;20052;-84
2024/02/20 04:29:06;;;;;;;1.50;1.10;;;;;;;;;;5908618;28;20056;-83
2024/02/20 04:31:57;;;;;;;6.63;3.30;;;;;;;;;;5908768;28;20045;-84
2024/02/20 04:34:47;;;;;;;1.38;1.27;;;;;;;;;;5908287;28;20054;-84
2024/02/20 04:37:38;;;;;;;3.88;2.10;;;;;;;;;;5907147;28;20051;-84
2024/02/20 04:40:30;;;;;;;3.92;1.88;;;;;;;;;;5890369;28;20133;-84
2024/02/20 04:43:21;;;;;;;2.88;2.30;;;;;;;;;;5923610;28;20131;-84
2024/02/20 04:46:11;;;;;;;1.38;1.20;;;;;;;;;;5923385;28;20418;-84
2024/02/20 04:49:02;;;;;;;1.75;1.65;;;;;;;;;;5908844;28;20422;-84
2024/02/20 04:51:54;;;;;;;3.28;1.92;;;;;;;;;;5911404;28;20490;-85
2024/02/20 04:54:45;;;;;;;3.80;1.83;;;;;;;;;;5927505;28;20052;-84
2024/02/20 04:57:36;;;;;;;3.45;2.92;;;;;;;;;;5894435;28;20512;-84
2024/02/20 05:00:26;;;;;;;2.85;1.90;;;;;;;;;;5927482;28;20043;-84
2024/02/20 05:03:17;;;;;;;4.10;3.47;;;;;;;;;;5911794;28;20048;-84
2024/02/20 05:06:10;;;;;;;2.90;2.70;;;;;;;;;;5910844;28;20417;-84
2024/02/20 05:09:01;;;;;;;2.78;1.65;;;;;;;;;;5910741;28;20395;-84
2024/02/20 05:11:52;;;;;;;2.40;2.20;;;;;;;;;;5911019;28;20044;-84
2024/02/20 05:14:47;;;;;;;6.50;2.45;;;;;;;;;;5910394;28;20044;-84
2024/02/20 05:17:38;;;;;;;2.53;2.33;;;;;;;;;;5910483;28;20051;-85
2024/02/20 05:20:29;;;;;;;6.07;3.05;;;;;;;;;;5911813;28;20040;-85
2024/02/20 05:23:20;;;;;;;2.45;2.25;;;;;;;;;;5910258;28;20068;-84
2024/02/20 05:26:11;;;;;;;6.00;2.75;;;;;;;;;;5927049;28;20064;-84
2024/02/20 05:29:02;;;;;;;3.95;2.47;;;;;;;;;;5910323;28;20055;-83
2024/02/20 05:31:57;;;;;;;1.90;1.80;;;;;;;;;;5927184;28;20071;-84
2024/02/20 05:34:47;;;;;;;2.15;2.00;;;;;;;;;;5926564;28;20512;-85
2024/02/20 05:37:38;;;;;;;3.25;2.75;;;;;;;;;;5909999;28;20050;-85
2024/02/20 05:40:29;;;;;;;3.30;2.40;;;;;;;;;;5926583;28;20041;-85
2024/02/20 05:43:20;;;;;;;3.83;3.50;;;;;;;;;;5909997;28;20132;-85
2024/02/20 05:46:11;;;;;;;4.65;3.65;;;;;;;;;;5926727;28;20076;-85
2024/02/20 05:49:05;;;;;;;3.50;3.08;;;;;;;;;;5926558;28;20048;-85
2024/02/20 05:51:56;;;;;;;3.63;2.83;;;;;;;;;;5926700;28;20126;-85
2024/02/20 05:54:47;;;;;;;7.00;2.88;;;;;;;;;;5926158;28;20120;-85
2024/02/20 05:57:38;;;;;;;24.10;3.20;;;;;;;;;;5910903;28;20494;-85
2024/02/20 06:00:29;;;;;;;4.82;2.80;;;;;;;;;;5909397;28;20044;-85
2024/02/20 06:03:20;;;;;;;7.25;3.58;;;;;;;;;;5892919;28;20044;-85
2024/02/20 06:06:13;;;;;;;6.82;5.22;;;;;;;;;;5925872;28;20521;-85
2024/02/20 06:09:04;;;;;;;5.18;3.67;;;;;;;;;;5909883;28;20426;-84
2024/02/20 06:11:55;;;;;;;3.47;3.17;;;;;;;;;;5909770;28;20682;-86
2024/02/20 06:14:45;;;;;;;7.57;4.72;;;;;;;;;;5908818;28;20173;-85
2024/02/20 06:17:36;;;;;;;4.75;4.35;;;;;;;;;;5925884;28;20044;-85
2024/02/20 06:20:28;;;;;;;4.95;3.78;;;;;;;;;;5910217;28;20055;-84
2024/02/20 06:23:19;;;;;;;4.07;3.78;;;;;;;;;;5908846;28;20517;-85
2024/02/20 06:26:10;;;;;;;2.60;2.40;;;;;;;;;;5925756;28;20049;-84
2024/02/20 06:29:06;;;;;;;5.45;3.42;;;;;;;;;;5909072;28;20510;-84
2024/02/20 06:31:58;;;;;;;4.88;2.95;;;;;;;;;;5910523;28;20356;-85
2024/02/20 06:34:49;;;;;;;5.63;2.88;;;;;;;;;;5909883;28;20414;-84
2024/02/20 06:37:40;;;;;;;3.72;3.42;;;;;;;;;;5925287;28;20040;-85
2024/02/20 06:40:31;;;;;;;5.07;3.20;;;;;;;;;;5908337;28;20055;-85
2024/02/20 06:43:22;;;;;;;2.92;2.67;;;;;;;;;;5908585;28;20131;-85
2024/02/20 06:46:12;;;;;;;6.40;5.22;;;;;;;;;;5908190;28;20127;-85
2024/02/20 06:49:04;;;;;;;5.45;4.95;;;;;;;;;;5909779;28;20529;-84
2024/02/20 06:51:55;;;;;;;5.97;3.75;;;;;;;;;;5925619;28;20051;-84
2024/02/20 06:54:45;;;;;;;5.20;4.10;;;;;;;;;;5924704;28;20055;-84
2024/02/20 06:57:39;;;;;;;5.30;3.95;;;;;;;;;;5909506;28;20122;-84
2024/02/20 07:00:30;;;;;;;4.65;3.25;;;;;;;;;;5924320;28;20494;-84
2024/02/20 07:03:21;;;;;;;4.93;4.18;;;;;;;;;;5907988;28;20055;-85
2024/02/20 07:06:12;;;;;;;5.60;4.13;;;;;;;;;;5909365;28;20536;-84
2024/02/20 07:09:03;;;;;;;3.70;2.92;;;;;;;;;;5908197;28;20057;-84
2024/02/20 07:11:53;;;;;;;4.88;4.43;;;;;;;;;;5909047;28;20037;-85
2024/02/20 07:14:44;;;;;;;6.53;2.97;;;;;;;;;;5891012;28;20049;-85
2024/02/20 07:17:35;;;;;;;3.50;3.13;;;;;;;;;;5924736;28;20048;-85
2024/02/20 07:20:26;;;;;;;9.27;3.28;;;;;;;;;;5924391;28;20052;-85
2024/02/20 07:23:17;;;;;;;6.55;2.78;;;;;;;;;;5909083;28;20052;-85
2024/02/20 07:26:08;;;;;;;4.22;3.85;;;;;;;;;;5924404;28;20048;-84
2024/02/20 07:28:59;;;;;;;3.22;2.92;;;;;;;;;;5924851;28;20045;-85
2024/02/20 07:31:50;;;;;;;3.45;3.15;;;;;;;;;;5907437;28;20435;-85
2024/02/20 07:34:41;;;;;;;3.00;2.72;;;;;;;;;;5924374;28;20163;-85
2024/02/20 07:37:33;;;;;;;8.63;4.18;;;;;;;;;;5908961;28;20048;-86
2024/02/20 07:40:27;;;;;;;3.08;2.60;;;;;;;;;;5908888;28;20040;-86
2024/02/20 07:43:17;;;;;;;3.15;2.58;;;;;;;;;;5908730;28;20119;-85
2024/02/20 07:46:09;;;;;;;7.00;5.13;;;;;;;;;;5907470;28;20124;-87
2024/02/20 07:49:00;;;;;;;8.10;5.38;;;;;;;;;;5908101;28;20052;-86
2024/02/20 07:51:51;;;;;;;3.83;3.45;;;;;;;;;;5909063;28;20387;-86
2024/02/20 07:54:42;;;;;;;6.60;4.25;;;;;;;;;;5907477;28;20351;-86
2024/02/20 07:57:33;;;;;;;6.22;5.22;;;;;;;;;;5908852;28;20142;-86
2024/02/20 08:00:25;;;;;;;7.78;5.78;;;;;;;;;;5924167;28;20040;-86
2024/02/20 08:03:19;;;;;;;3.92;2.78;;;;;;;;;;5924100;28;20517;-87
2024/02/20 08:06:10;;;;;;;6.95;4.15;;;;;;;;;;5891436;28;20056;-86
2024/02/20 08:09:00;;;;;;;7.22;4.32;;;;;;;;;;5908541;28;20135;-83
2024/02/20 08:11:51;;;;;;;4.78;3.47;;;;;;;;;;5909022;28;20044;-86
2024/02/20 08:14:42;;;;;;;8.35;3.95;;;;;;;;;;5907084;28;20064;-86
2024/02/20 08:17:37;;;;;;;5.47;3.50;;;;;;;;;;5923631;28;20052;-86
2024/02/20 08:20:27;;;;;;;5.15;4.70;;;;;;;;;;5908279;28;20048;-87
2024/02/20 08:23:18;;;;;;;5.55;4.90;;;;;;;;;;5924840;28;20470;-87
2024/02/20 08:26:09;;;;;;;18.75;6.10;;;;;;;;;;5913191;28;20052;-86
2024/02/20 08:29:00;;;;;;;5.93;5.38;;;;;;;;;;5929217;28;20052;-86
2024/02/20 08:31:51;;;;;;;9.77;7.85;;;;;;;;;;5911539;28;20043;-86
2024/02/20 08:34:42;;;;;;;4.78;4.38;;;;;;;;;;5928456;28;20091;-86
2024/02/20 08:37:34;;;;;;;3.58;3.33;;;;;;;;;;5913011;28;20403;-86
2024/02/20 08:40:25;;;;;;;8.57;5.03;;;;;;;;;;5912638;28;20063;-86
2024/02/20 08:43:15;;;;;;;6.80;5.32;;;;;;;;;;5911066;28;20521;-86
2024/02/20 08:46:06;;;;;;;4.30;3.90;;;;;;;;;;5912428;28;20051;-86
2024/02/20 08:48:57;;;;;;;6.13;4.82;;;;;;;;;;5913024;28;20044;-87
2024/02/20 08:51:48;;;;;;;5.18;4.38;;;;;;;;;;5910946;28;20102;-86
2024/02/20 08:54:39;;;;;;;12.82;3.20;;;;;;;;;;5911211;28;20081;-87
2024/02/20 08:57:30;;;;;;;4.97;4.00;;;;;;;;;;5910833;28;20139;-87
2024/02/20 09:00:22;;;;;;;9.88;3.20;;;;;;;;;;5910962;28;20048;-86
2024/02/20 09:03:13;;;;;;;4.88;3.85;;;;;;;;;;5927122;28;20068;-86
2024/02/20 09:06:05;;;;;;;5.72;4.47;;;;;;;;;;5912243;28;20071;-86
2024/02/20 09:08:56;;;;;;;17.88;11.55;;;;;;;;;;5912401;28;20048;-86
2024/02/20 09:11:47;;;;;;;15.32;7.97;;;;;;;;;;5927690;28;20040;-86
2024/02/20 09:14:38;;;;;;;11.18;5.85;;;;;;;;;;5911869;28;20037;-86
2024/02/20 09:17:29;;;;;;;8.02;6.65;;;;;;;;;;5912156;28;20502;-86
2024/02/20 09:20:20;;;;;;;4.40;4.00;;;;;;;;;;5927126;28;20441;-85
2024/02/20 09:23:11;;;;;;;6.53;4.72;;;;;;;;;;5911905;28;20048;-85
2024/02/20 09:26:05;;;;;;;5.32;4.07;;;;;;;;;;5910508;28;20044;-85
2024/02/20 09:28:55;;;;;;;4.57;4.07;;;;;;;;;;5910796;28;20048;-86
2024/02/20 09:31:46;;;;;;;11.48;6.40;;;;;;;;;;5909890;28;20048;-85
2024/02/20 09:34:37;;;;;;;3.92;3.55;;;;;;;;;;5909848;28;20383;-86
2024/02/20 09:37:28;;;;;;;4.05;3.65;;;;;;;;;;5926632;28;20040;-86
2024/02/20 09:40:20;;;;;;;4.72;4.28;;;;;;;;;;5926715;28;20049;-85
2024/02/20 09:43:16;;;;;;;5.78;4.93;;;;;;;;;;5910051;28;20481;-86
2024/02/20 09:46:11;;;;;;;4.88;4.05;;;;;;;;;;5910049;28;20048;-84
2024/02/20 09:49:03;;;;;;;4.18;3.75;;;;;;;;;;5909734;28;20055;-84
2024/02/20 09:51:55;;;;;;;8.43;5.60;;;;;;;;;;5926739;28;20044;-86
2024/02/20 09:54:49;;;;;;;7.53;5.78;;;;;;;;;;5893260;28;20118;-85
2024/02/20 09:57:41;;;;;;;6.75;4.47;;;;;;;;;;5909663;28;20435;-86
2024/02/20 10:00:32;;;;;;;13.32;4.32;;;;;;;;;;5909457;28;20051;-86
2024/02/20 10:03:27;;;;;;;6.35;3.63;;;;;;;;;;5910784;28;20036;-85
2024/02/20 10:06:20;;;;;;;5.30;4.80;;;;;;;;;;5909266;28;20052;-87
2024/02/20 10:09:12;;;;;;;7.63;6.75;;;;;;;;;;5908980;28;20075;-85
2024/02/20 10:12:03;;;;;;;7.13;5.05;;;;;;;;;;5910330;28;20106;-84
2024/02/20 10:14:54;;;;;;;19.90;12.25;;;;;;;;;;5892704;28;20048;-86
2024/02/20 10:17:45;;;;;;;17.73;11.45;;;;;;;;;;5925506;28;20047;-86
2024/02/20 10:20:36;;;;;;;5.85;4.72;;;;;;;;;;5910275;28;20535;-86
2024/02/20 10:23:28;;;;;;;3.53;3.22;;;;;;;;;;5925429;28;20040;-86
2024/02/20 10:26:21;;;;;;;5.38;4.13;;;;;;;;;;5908746;28;20463;-86
2024/02/20 10:29:13;;;;;;;8.63;5.43;;;;;;;;;;5908585;28;20048;-85
2024/02/20 10:32:05;;;;;;;4.25;3.10;;;;;;;;;;5908660;28;20049;-86
2024/02/20 10:34:59;;;;;;;6.85;4.75;;;;;;;;;;5909295;28;20074;-85
2024/02/20 10:38:04;;;;;;;13.93;4.53;;;;;;;;;;5908909;28;20047;-86
2024/02/20 10:40:58;;;;;;;5.63;4.30;;;;;;;;;;5892486;28;20036;-86
2024/02/20 10:43:49;;;;;;;4.50;4.10;;;;;;;;;;5908715;28;20500;-86
2024/02/20 10:46:40;;;;;;;9.20;5.32;;;;;;;;;;5908942;28;20044;-86
2024/02/20 10:49:33;;;;;;;8.25;4.50;;;;;;;;;;5891473;28;20053;-86
2024/02/20 10:52:28;;;;;;;6.97;4.30;;;;;;;;;;5909322;28;20552;-86
2024/02/20 10:55:19;;;;;;;7.03;4.45;;;;;;;;;;5924806;28;20040;-86
2024/02/20 10:58:22;;;;;;;8.68;5.68;;;;;;;;;;5922991;28;20054;-86
2024/02/20 11:01:13;;;;;;;8.48;6.10;;;;;;;;;;5924740;28;20130;-86
2024/02/20 11:04:05;;;;;;;7.28;5.57;;;;;;;;;;5924586;28;20174;-86
2024/02/20 11:07:06;;;;;;;12.27;7.15;;;;;;;;;;5892724;28;20418;-86
2024/02/20 11:10:18;;;;;;;5.32;4.82;;;;;;;;;;5908562;28;20493;-86
2024/02/20 11:13:24;;;;;;;10.52;5.63;;;;;;;;;;5924243;28;20099;-87
2024/02/20 11:16:15;;;;;;;9.20;5.82;;;;;;;;;;5908224;28;20059;-86
2024/02/20 11:19:06;;;;;;;6.88;5.75;;;;;;;;;;5907799;28;20049;-85
2024/02/20 11:22:07;;;;;;;7.82;5.15;;;;;;;;;;5908523;28;20052;-86
2024/02/20 11:25:08;;;;;;;11.75;6.72;;;;;;;;;;5909320;28;20036;-86
2024/02/20 11:28:01;;;;;;;6.95;6.32;;;;;;;;;;5907689;28;20068;-86
2024/02/20 11:31:02;;;;;;;8.02;6.15;;;;;;;;;;5923928;28;20073;-85
2024/02/20 11:33:57;;;;;;;8.32;6.47;;;;;;;;;;5891390;28;20047;-86
2024/02/20 11:36:49;;;;;;;7.03;6.28;;;;;;;;;;5923747;28;20047;-85
2024/02/20 11:39:45;;;;;;;23.55;6.07;;;;;;;;;;5891023;28;20485;-85
2024/02/20 11:42:35;;;;;;;6.68;5.97;;;;;;;;;;5907447;28;20040;-86
2024/02/20 11:45:31;;;;;;;9.48;6.15;;;;;;;;;;5924059;28;20064;-85
2024/02/20 11:48:22;;;;;;;8.38;5.72;;;;;;;;;;5906794;28;20568;-85
2024/02/20 11:51:17;;;;;;;12.25;6.00;;;;;;;;;;5923935;28;20048;-85
2024/02/20 11:54:08;;;;;;;6.05;5.45;;;;;;;;;;5924026;28;20052;-85
2024/02/20 11:57:00;;;;;;;5.25;3.47;;;;;;;;;;5924400;28;20036;-85
2024/02/20 11:59:54;;;;;;;9.93;6.13;;;;;;;;;;5911223;28;20040;-84
2024/02/20 12:02:45;;;;;;;6.70;3.88;;;;;;;;;;5928756;28;20047;-85
2024/02/20 12:05:41;;;;;;;5.07;4.60;;;;;;;;;;5912349;28;20486;-85
2024/02/20 12:08:44;;;;;;;9.95;8.15;;;;;;;;;;5912082;28;20048;-85
2024/02/20 12:11:49;;;;;;;7.35;6.22;;;;;;;;;;5912135;28;20051;-85
2024/02/20 12:14:41;;;;;;;6.15;5.50;;;;;;;;;;5912177;28;20411;-85
2024/02/20 12:17:42;;;;;;;5.75;5.25;;;;;;;;;;5928577;28;20055;-86
2024/02/20 12:20:33;;;;;;;8.35;6.78;;;;;;;;;;5927852;28;20052;-85
2024/02/20 12:23:24;;;;;;;12.63;5.53;;;;;;;;;;5928435;28;20044;-85
2024/02/20 12:26:18;;;;;;;13.40;7.63;;;;;;;;;;5911446;28;20422;-85
2024/02/20 12:29:09;;;;;;;6.25;3.17;;;;;;;;;;5911556;28;20048;-84
2024/02/20 12:31:59;;;;;;;5.93;3.30;;;;;;;;;;5911766;28;20051;-86
2024/02/20 12:34:50;;;;;;;9.43;4.88;;;;;;;;;;5895042;28;20048;-84
2024/02/20 12:37:42;;;;;;;4.40;3.38;;;;;;;;;;5927899;28;20063;-85
2024/02/20 12:40:33;;;;;;;10.15;6.20;;;;;;;;;;5912252;28;20051;-85
2024/02/20 12:43:24;;;;;;;11.48;5.75;;;;;;;;;;5912325;28;20478;-85
2024/02/20 12:46:15;;;;;;;4.35;3.42;;;;;;;;;;5911211;28;20059;-84
2024/02/20 12:49:08;;;;;;;5.13;4.55;;;;;;;;;;5912462;28;20098;-85
2024/02/20 12:51:59;;;;;;;4.22;3.55;;;;;;;;;;5927732;28;20692;-85
2024/02/20 12:54:50;;;;;;;3.45;3.03;;;;;;;;;;5910952;28;20056;-85
2024/02/20 12:57:41;;;;;;;12.18;7.35;;;;;;;;;;5927312;28;20044;-86
2024/02/20 13:00:32;;;;;;;9.18;6.78;;;;;;;;;;5910863;28;20466;-86
2024/02/20 13:03:23;;;;;;;8.55;5.47;;;;;;;;;;5910414;28;20040;-86
2024/02/20 13:06:14;;;;;;;5.93;4.28;;;;;;;;;;5927487;28;20059;-86
2024/02/20 13:09:05;;;;;;;4.88;4.05;;;;;;;;;;5927126;28;20178;-86
2024/02/20 13:12:00;;;;;;;8.63;4.40;;;;;;;;;;5910011;28;20054;-86
2024/02/20 13:14:51;;;;;;;4.43;3.63;;;;;;;;;;5911760;28;20403;-86
2024/02/20 13:17:42;;;;;;;9.00;4.55;;;;;;;;;;5912045;28;20044;-85
2024/02/20 13:20:33;;;;;;;3.28;2.97;;;;;;;;;;5911909;28;20141;-85
2024/02/20 13:23:24;;;;;;;6.57;4.18;;;;;;;;;;5910299;28;20147;-85
2024/02/20 13:26:15;;;;;;;6.88;4.93;;;;;;;;;;5910216;28;20056;-86
2024/02/20 13:29:10;;;;;;;10.75;6.22;;;;;;;;;;5926690;28;20565;-86
2024/02/20 13:32:03;;;;;;;4.95;3.85;;;;;;;;;;5926374;28;20052;-81
2024/02/20 13:34:54;;;;;;;10.85;7.63;;;;;;;;;;5911776;28;20044;-87
2024/02/20 13:37:47;;;;;;;6.10;4.88;;;;;;;;;;5926764;28;20048;-87
2024/02/20 13:40:39;;;;;;;4.22;3.40;;;;;;;;;;5911721;28;20041;-87
2024/02/20 13:43:33;;;;;;;3.55;3.25;;;;;;;;;;5911691;28;20045;-88
2024/02/20 13:46:24;;;;;;;7.25;3.97;;;;;;;;;;5911344;28;20045;-88
2024/02/20 13:49:23;;;;;;;2.30;2.10;;;;;;;;;;5911334;28;20155;-87
2024/02/20 13:52:15;;;;;;;3.97;2.78;;;;;;;;;;5910099;28;20092;-88
2024/02/20 13:55:07;;;;;;;3.13;2.83;;;;;;;;;;5911014;28;20077;-87
2024/02/20 13:57:58;;;;;;;6.47;2.72;;;;;;;;;;5911535;28;20636;-88
2024/02/20 14:00:49;;;;;;;1.98;1.65;;;;;;;;;;5925950;28;20063;-89
2024/02/20 14:03:39;;;;;;;2.42;2.13;;;;;;;;;;5910894;28;20037;-88
2024/02/20 14:06:34;;;;;;;2.13;1.95;;;;;;;;;;5926337;28;20044;-88
2024/02/20 14:09:26;;;;;;;5.75;3.55;;;;;;;;;;5910730;28;20044;-89
2024/02/20 14:12:17;;;;;;;5.65;3.63;;;;;;;;;;5910375;28;20056;-87
2024/02/20 14:15:09;;;;;;;5.13;4.30;;;;;;;;;;5909014;28;20055;-88
2024/02/20 14:18:00;;;;;;;16.10;10.40;;;;;;;;;;5926241;28;20481;-87
2024/02/20 14:20:57;;;;;;;8.95;6.18;;;;;;;;;;5909059;28;20154;-87
2024/02/20 14:23:48;;;;;;;6.72;3.70;;;;;;;;;;5910348;28;20129;-87
2024/02/20 14:26:39;;;;;;;3.92;3.53;;;;;;;;;;5909099;28;20044;-88
2024/02/20 14:29:31;;;;;;;7.82;5.07;;;;;;;;;;5908549;28;20040;-87
2024/02/20 14:32:23;;;;;;;11.70;6.45;;;;;;;;;;5925178;28;20044;-87
2024/02/20 14:35:15;;;;;;;3.40;2.97;;;;;;;;;;5925033;28;20066;-87
2024/02/20 14:38:08;;;;;;;5.75;3.45;;;;;;;;;;5925499;28;20130;-86
2024/02/20 14:40:59;;;;;;;8.88;5.05;;;;;;;;;;5925609;28;20194;-87
2024/02/20 14:43:50;;;;;;;5.05;4.20;;;;;;;;;;5908769;28;20048;-87
2024/02/20 14:46:43;;;;;;;6.30;5.57;;;;;;;;;;5909768;28;20040;-87
2024/02/20 14:49:34;;;;;;;14.65;9.88;;;;;;;;;;5909519;28;20048;-87
2024/02/20 14:52:25;;;;;;;9.68;6.45;;;;;;;;;;5908101;28;20066;-87
2024/02/20 14:55:16;;;;;;;13.50;9.13;;;;;;;;;;5924939;28;20044;-87
2024/02/20 14:58:07;;;;;;;17.30;11.57;;;;;;;;;;5909341;28;20056;-87
2024/02/20 15:00:58;;;;;;;12.52;8.98;;;;;;;;;;5925618;28;20084;-87
2024/02/20 15:03:50;;;;;;;17.13;9.73;;;;;;;;;;5925308;28;20040;-87
2024/02/20 15:06:43;;;;;;;23.30;8.73;;;;;;;;;;5909546;28;20060;-87
2024/02/20 15:09:34;;;;;;;20.67;10.40;;;;;;;;;;5909456;28;20036;-87
2024/02/20 15:12:26;;;;;;;12.85;9.98;;;;;;;;;;5907850;28;20049;-87
2024/02/20 15:15:16;;;;;;;26.00;8.35;;;;;;;;;;5909232;28;20052;-87
2024/02/20 15:18:08;;;;;;;10.27;7.15;;;;;;;;;;5907829;28;20056;-86
2024/02/20 15:21:00;;;;;;;8.35;5.10;;;;;;;;;;5909493;28;20123;-87
2024/02/20 15:23:50;;;;;;;5.07;3.75;;;;;;;;;;5924869;28;20044;-86
2024/02/20 15:26:42;;;;;;;9.73;5.10;;;;;;;;;;5907805;28;20045;-87
2024/02/20 15:29:38;;;;;;;6.10;4.28;;;;;;;;;;5907919;28;20041;-86
2024/02/20 15:32:29;;;;;;;4.30;3.00;;;;;;;;;;5923999;28;20040;-86
2024/02/20 15:35:22;;;;;;;3.13;2.85;;;;;;;;;;5908400;28;20044;-86
2024/02/20 15:38:13;;;;;;;6.07;3.88;;;;;;;;;;5906509;28;20040;-86
2024/02/20 15:41:07;;;;;;;3.67;3.10;;;;;;;;;;5909020;28;20076;-86
2024/02/20 15:43:58;;;;;;;5.70;3.38;;;;;;;;;;5907936;28;20056;-86
2024/02/20 15:46:49;;;;;;;3.30;3.00;;;;;;;;;;5907288;28;20360;-86
2024/02/20 15:49:44;;;;;;;6.68;4.13;;;;;;;;;;5924157;28;20036;-86
2024/02/20 15:52:35;;;;;;;4.18;3.30;;;;;;;;;;5907587;28;20055;-86
2024/02/20 15:55:30;;;;;;;14.25;4.88;;;;;;;;;;5906902;28;20407;-86
2024/02/20 15:58:22;;;;;;;21.38;10.80;;;;;;;;;;5923393;28;20132;-86
2024/02/20 16:01:14;;;;;;;29.33;13.60;;;;;;;;;;5891199;28;20052;-85
2024/02/20 16:04:05;;;;;;;32.83;16.15;;;;;;;;;;5924007;28;20052;-86
2024/02/20 16:06:56;;;;;;;17.52;10.35;;;;;;;;;;5907831;28;20150;-86
2024/02/20 16:09:48;;;;;;;7.30;3.03;;;;;;;;;;5907083;28;20037;-86
2024/02/20 16:12:40;;;;;;;8.00;3.55;;;;;;;;;;5907329;28;20064;-86
2024/02/20 16:15:31;;;;;;;2.00;1.80;;;;;;;;;;5923671;28;20127;-86
2024/02/20 16:18:22;;;;;;;1.13;1.13;;;;;;;;;;5906969;28;20470;-86
2024/02/20 16:21:13;;;;;;;1.83;1.67;;;;;;;;;;5907009;28;20109;-85
2024/02/20 16:24:05;;;;;;;3.00;2.03;;;;;;;;;;5890770;28;20060;-85
2024/02/20 16:26:57;;;;;;;1.60;1.45;;;;;;;;;;5891055;28;20044;-85
2024/02/20 16:29:50;;;;;;;3.22;1.55;;;;;;;;;;5908514;28;20049;-86
2024/02/20 16:32:41;;;;;;;2.42;2.08;;;;;;;;;;5923675;28;20054;-85
2024/02/20 16:35:32;;;;;;;1.45;1.30;;;;;;;;;;5923457;28;20499;-85
2024/02/20 16:38:26;;;;;;;1.60;1.50;;;;;;;;;;5906762;28;20044;-84
2024/02/20 16:41:23;;;;;;;2.72;2.47;;;;;;;;;;5922849;28;20500;-86
2024/02/20 16:44:14;;;;;;;3.00;2.60;;;;;;;;;;5906936;28;20402;-85
2024/02/20 16:47:05;;;;;;;3.88;3.25;;;;;;;;;;5911866;28;20461;-85
2024/02/20 16:49:56;;;;;;;7.95;4.63;;;;;;;;;;5928356;28;20051;-85
2024/02/20 16:52:47;;;;;;;5.07;3.17;;;;;;;;;;5912471;28;20045;-85
2024/02/20 16:55:38;;;;;;;1.30;1.15;;;;;;;;;;5911936;28;20516;-85
2024/02/20 16:58:29;;;;;;;4.28;2.45;;;;;;;;;;5927692;28;20136;-85
2024/02/20 17:01:20;;;;;;;1.85;1.33;;;;;;;;;;5911984;28;20052;-85
2024/02/20 17:04:11;;;;;;;1.42;1.33;;;;;;;;;;5927039;28;20041;-85
2024/02/20 17:07:02;;;;;;;5.63;1.70;;;;;;;;;;5912134;28;20071;-84